Time;durP1;ratioP1;P1;durP2;ratioP2;P2;SDS_P1;SDS_P2;PMS_P1;PMS_P2;Temp;Humidity;BMP_temperature;BMP_pressure;BME280_temperature;BME280_humidity;BME280_pressure;Samples;Min_cycle;Max_cycle;Signal;HPM_P1;HPM_P2
2021/06/21 00:00:56;;;;;;;23.70;9.10;;;;;;;20.96;81.32;94595.44;5040171;28;20029;-68
2021/06/21 00:03:21;;;;;;;18.25;9.05;;;;;;;20.73;82.73;94609.31;5048091;28;20486;-68
2021/06/21 00:05:48;;;;;;;31.42;9.27;;;;;;;20.63;83.08;94621.63;5048655;28;20069;-68
2021/06/21 00:08:14;;;;;;;28.25;8.73;;;;;;;20.59;83.20;94612.72;5057086;28;20629;-68
2021/06/21 00:10:39;;;;;;;25.30;9.30;;;;;;;20.88;81.70;94618.19;5029732;28;20030;-68
2021/06/21 00:13:05;;;;;;;35.72;9.77;;;;;;;21.22;80.28;94638.38;5046308;28;20514;-69
2021/06/21 00:15:30;;;;;;;25.90;9.15;;;;;;;21.01;80.89;94643.75;5028435;28;20041;-69
2021/06/21 00:17:56;;;;;;;27.35;8.75;;;;;;;20.66;82.60;94639.75;5028421;28;20037;-69
2021/06/21 00:20:22;;;;;;;25.70;8.98;;;;;;;20.59;83.31;94669.47;5028476;28;20052;-67
2021/06/21 00:22:49;;;;;;;22.15;8.43;;;;;;;21.10;81.13;94673.91;5028108;28;20120;-68
2021/06/21 00:25:15;;;;;;;30.73;9.75;;;;;;;21.29;79.92;94678.97;5030199;28;20036;-68
2021/06/21 00:27:42;;;;;;;22.00;9.23;;;;;;;21.36;79.46;94672.81;5008490;28;20714;-68
2021/06/21 00:30:10;;;;;;;22.40;8.65;;;;;;;21.23;79.34;94639.91;5008073;28;20042;-75
2021/06/21 00:32:37;;;;;;;29.38;9.25;;;;;;;20.45;83.38;94635.00;5013537;28;20049;-69
2021/06/21 00:35:03;;;;;;;30.33;9.68;;;;;;;20.37;84.21;94629.94;5008582;28;20037;-70
2021/06/21 00:37:28;;;;;;;24.98;9.55;;;;;;;20.64;82.94;94628.56;5008703;28;20379;-69
2021/06/21 00:39:53;;;;;;;26.23;8.85;;;;;;;20.71;82.18;94633.22;5010617;28;20048;-70
2021/06/21 00:42:19;;;;;;;23.75;9.30;;;;;;;20.62;82.83;94641.66;5008079;28;20042;-68
2021/06/21 00:44:46;;;;;;;23.15;8.90;;;;;;;20.80;81.24;94622.06;5023850;28;20040;-70
2021/06/21 00:47:13;;;;;;;23.83;8.75;;;;;;;20.83;81.47;94623.97;5021678;28;20069;-70
2021/06/21 00:49:39;;;;;;;27.80;8.55;;;;;;;20.30;84.39;94608.31;5008579;28;20022;-69
2021/06/21 00:52:05;;;;;;;22.08;8.48;;;;;;;20.16;84.95;94598.97;5010571;28;20049;-69
2021/06/21 00:54:31;;;;;;;27.45;8.77;;;;;;;20.06;85.51;94610.50;5008549;28;20042;-69
2021/06/21 00:56:56;;;;;;;27.58;8.63;;;;;;;20.01;85.37;94589.25;5008515;28;20557;-70
2021/06/21 00:59:21;;;;;;;25.58;8.82;;;;;;;20.42;83.37;94580.97;5007973;28;20054;-70
2021/06/21 01:01:47;;;;;;;20.42;7.70;;;;;;;20.75;81.75;94604.28;5008373;28;20030;-71
2021/06/21 01:04:13;;;;;;;19.90;8.18;;;;;;;20.77;80.94;94610.84;5009971;28;20384;-68
2021/06/21 01:06:39;;;;;;;21.70;7.93;;;;;;;20.47;81.42;94592.22;5008562;28;20079;-70
2021/06/21 01:09:04;;;;;;;20.60;7.45;;;;;;;20.39;82.02;94582.50;5022267;28;20112;-68
2021/06/21 01:11:59;;;;;;;20.90;7.82;;;;;;;20.13;83.48;94596.28;5028115;28;20041;-70
2021/06/21 01:14:30;;;;;;;21.23;8.10;;;;;;;19.72;85.85;94586.38;5013504;28;20137;-69
2021/06/21 01:17:36;;;;;;;24.33;8.10;;;;;;;20.17;83.48;94578.94;5010735;28;20044;-69
2021/06/21 01:20:34;;;;;;;18.85;7.35;;;;;;;20.39;82.33;94571.69;4951248;29;20130;-68
2021/06/21 01:23:09;;;;;;;23.25;8.40;;;;;;;20.01;84.36;94570.34;5000626;28;20099;-69
2021/06/21 01:25:41;;;;;;;20.40;7.93;;;;;;;19.95;84.06;94551.03;5031979;28;20033;-68
2021/06/21 01:28:42;;;;;;;20.25;7.85;;;;;;;20.05;83.95;94570.38;5032169;28;20059;-69
2021/06/21 01:31:13;;;;;;;19.80;7.47;;;;;;;20.28;82.99;94559.31;5030621;28;20041;-68
2021/06/21 01:33:39;;;;;;;23.65;7.47;;;;;;;20.53;81.89;94564.84;5012919;28;20038;-69
2021/06/21 01:36:08;;;;;;;17.60;8.13;;;;;;;19.98;83.57;94571.13;5025556;28;20045;-69
2021/06/21 01:38:39;;;;;;;23.23;7.80;;;;;;;19.86;85.30;94620.00;5030468;28;20033;-68
2021/06/21 01:41:06;;;;;;;23.85;7.85;;;;;;;20.11;84.15;94622.84;5031618;28;20519;-68
2021/06/21 01:43:40;;;;;;;22.45;8.32;;;;;;;20.46;82.48;94620.38;5029539;28;20077;-69
2021/06/21 01:46:08;;;;;;;17.92;8.50;;;;;;;20.49;81.74;94610.75;5033256;28;20025;-65
2021/06/21 01:48:38;;;;;;;25.38;8.65;;;;;;;20.37;82.34;94600.22;5013782;28;20042;-66
2021/06/21 01:51:04;;;;;;;21.75;8.13;;;;;;;20.24;82.54;94578.97;5025136;28;20049;-64
2021/06/21 01:53:32;;;;;;;19.45;8.10;;;;;;;20.64;81.46;94593.44;5030829;28;20034;-64
2021/06/21 01:56:07;;;;;;;18.42;9.18;;;;;;;20.89;80.44;94598.91;5030883;28;20046;-65
2021/06/21 01:58:36;;;;;;;24.08;8.05;;;;;;;21.03;79.42;94612.44;5030829;28;20148;-64
2021/06/21 02:01:04;;;;;;;21.80;8.10;;;;;;;21.33;78.90;94643.06;5034846;28;20394;-65
2021/06/21 02:03:31;;;;;;;20.58;8.52;;;;;;;21.46;78.50;94633.41;5050308;28;20128;-64
2021/06/21 02:05:57;;;;;;;19.80;8.05;;;;;;;21.43;77.21;94610.59;5050615;28;20095;-64
2021/06/21 02:08:26;;;;;;;23.63;7.47;;;;;;;21.51;76.90;94628.41;5050909;28;20554;-64
2021/06/21 02:10:52;;;;;;;21.95;7.93;;;;;;;21.42;77.04;94611.00;5047017;28;20029;-64
2021/06/21 02:13:20;;;;;;;19.17;8.35;;;;;;;21.36;76.74;94626.06;5031521;28;20121;-64
2021/06/21 02:15:46;;;;;;;26.73;7.75;;;;;;;21.21;77.31;94614.41;5029982;28;20037;-64
2021/06/21 02:18:12;;;;;;;19.38;7.22;;;;;;;21.26;76.65;94612.09;5015929;28;20045;-64
2021/06/21 02:20:39;;;;;;;21.00;8.15;;;;;;;21.40;76.64;94618.72;5009453;28;20117;-64
2021/06/21 02:23:06;;;;;;;19.40;6.97;;;;;;;21.45;76.40;94604.81;5015903;28;20041;-64
2021/06/21 02:25:31;;;;;;;18.92;7.53;;;;;;;21.66;75.81;94623.75;5028451;28;20026;-65
2021/06/21 02:27:57;;;;;;;24.73;7.15;;;;;;;21.60;74.90;94610.97;5012600;28;20056;-65
2021/06/21 02:30:23;;;;;;;19.75;7.82;;;;;;;21.50;75.28;94631.50;5010005;28;20062;-64
2021/06/21 02:32:48;;;;;;;18.88;6.65;;;;;;;21.49;75.17;94622.56;5021614;28;20076;-64
2021/06/21 02:35:16;;;;;;;21.27;7.18;;;;;;;21.41;75.38;94615.63;5029128;28;20042;-64
2021/06/21 02:37:42;;;;;;;21.33;6.20;;;;;;;21.42;75.08;94619.09;5028344;28;20514;-65
2021/06/21 02:40:13;;;;;;;23.65;6.40;;;;;;;20.82;76.65;94608.91;5012427;28;20029;-64
2021/06/21 02:42:40;;;;;;;16.55;6.60;;;;;;;20.94;77.30;94635.63;5027040;28;20053;-65
2021/06/21 02:45:06;;;;;;;19.17;7.72;;;;;;;21.17;75.97;94637.97;5029609;28;20153;-64
2021/06/21 02:47:33;;;;;;;14.80;6.90;;;;;;;21.27;75.65;94653.44;5028451;28;20037;-64
2021/06/21 02:49:59;;;;;;;19.92;6.45;;;;;;;21.23;75.38;94622.91;5029956;28;20037;-64
2021/06/21 02:52:36;;;;;;;12.55;6.07;;;;;;;21.35;74.37;94638.06;5030135;28;20056;-64
2021/06/21 02:55:08;;;;;;;18.70;5.90;;;;;;;21.31;74.76;94646.16;5028930;28;20123;-64
2021/06/21 02:57:45;;;;;;;19.55;6.95;;;;;;;21.00;75.34;94644.91;5028559;28;20376;-64
2021/06/21 03:00:11;;;;;;;13.60;5.75;;;;;;;20.72;76.83;94640.16;5039302;28;20415;-64
2021/06/21 03:02:39;;;;;;;21.50;6.28;;;;;;;20.52;78.13;94650.50;5063302;28;20144;-64
2021/06/21 03:05:07;;;;;;;17.98;6.03;;;;;;;20.93;76.66;94661.09;5048872;28;20052;-64
2021/06/21 03:07:33;;;;;;;15.65;5.55;;;;;;;20.97;76.48;94653.75;5048145;28;20383;-64
2021/06/21 03:10:00;;;;;;;14.70;5.85;;;;;;;21.09;76.03;94666.94;5051409;28;20079;-65
2021/06/21 03:12:28;;;;;;;15.07;5.65;;;;;;;21.10;75.79;94670.41;5047778;28;20705;-64
2021/06/21 03:14:53;;;;;;;19.75;5.80;;;;;;;21.08;75.84;94676.19;5037341;28;20033;-64
2021/06/21 03:17:21;;;;;;;19.48;5.75;;;;;;;21.13;75.24;94658.81;5029582;28;20057;-65
2021/06/21 03:19:47;;;;;;;24.02;5.68;;;;;;;21.31;74.81;94680.53;5029383;28;20131;-65
2021/06/21 03:22:13;;;;;;;14.82;5.30;;;;;;;21.09;75.00;94683.16;5030846;28;20456;-65
2021/06/21 03:24:38;;;;;;;19.65;5.43;;;;;;;20.85;76.40;94692.75;5029167;28;20467;-66
2021/06/21 03:27:05;;;;;;;13.30;5.30;;;;;;;21.09;75.55;94707.50;5029264;28;20080;-65
2021/06/21 03:29:31;;;;;;;19.50;5.75;;;;;;;20.93;75.94;94702.41;5035057;28;20037;-65
2021/06/21 03:32:04;;;;;;;11.15;5.32;;;;;;;20.94;75.44;94684.28;5049292;28;20091;-65
2021/06/21 03:34:33;;;;;;;14.48;5.50;;;;;;;20.59;77.57;94693.78;5047529;28;20075;-65
2021/06/21 03:36:58;;;;;;;16.52;5.18;;;;;;;20.57;76.98;94706.09;5049440;28;20116;-65
2021/06/21 03:39:23;;;;;;;15.30;5.20;;;;;;;20.43;77.67;94698.69;5048186;28;20125;-65
2021/06/21 03:41:49;;;;;;;17.02;5.28;;;;;;;20.99;75.15;94719.06;5029186;28;20065;-65
2021/06/21 03:44:14;;;;;;;12.70;5.35;;;;;;;21.24;73.50;94708.31;5022068;28;20038;-65
2021/06/21 03:46:39;;;;;;;15.02;5.13;;;;;;;21.45;73.26;94719.22;5009359;28;20108;-65
2021/06/21 03:49:05;;;;;;;11.77;4.60;;;;;;;21.64;72.07;94715.38;5011302;28;20026;-65
2021/06/21 03:51:30;;;;;;;14.15;5.18;;;;;;;21.64;71.40;94720.78;5009447;28;20034;-65
2021/06/21 03:53:56;;;;;;;13.40;5.35;;;;;;;21.61;70.64;94699.94;5019471;28;20136;-66
2021/06/21 03:56:21;;;;;;;15.93;4.43;;;;;;;21.88;70.16;94732.03;5028934;28;20033;-65
2021/06/21 03:58:48;;;;;;;11.43;4.32;;;;;;;21.98;69.47;94728.56;5025436;28;20076;-66
2021/06/21 04:01:15;;;;;;;16.00;4.75;;;;;;;22.17;68.98;94741.75;5009317;28;20471;-65
2021/06/21 04:03:40;;;;;;;15.23;4.50;;;;;;;22.29;68.60;94743.28;5026770;28;20042;-65
2021/06/21 04:06:05;;;;;;;12.65;4.38;;;;;;;22.41;67.65;94733.97;5043898;28;20403;-65
2021/06/21 04:08:31;;;;;;;14.00;4.30;;;;;;;22.59;67.18;94751.00;5027298;28;20391;-65
2021/06/21 04:10:56;;;;;;;14.18;4.45;;;;;;;22.64;66.12;94733.56;5026952;28;20057;-65
2021/06/21 04:13:21;;;;;;;12.60;4.20;;;;;;;22.82;65.46;94742.41;5045290;28;20433;-66
2021/06/21 04:15:47;;;;;;;11.85;4.35;;;;;;;22.94;65.26;94752.88;5018620;28;20030;-65
2021/06/21 04:18:16;;;;;;;12.32;4.57;;;;;;;23.04;64.79;94754.78;5027069;28;20041;-65
2021/06/21 04:20:43;;;;;;;9.15;3.60;;;;;;;23.23;64.83;94769.03;5018358;28;20038;-66
2021/06/21 04:23:09;;;;;;;15.82;4.38;;;;;;;23.22;64.25;94749.28;5013972;28;20046;-65
2021/06/21 04:25:35;;;;;;;12.18;3.72;;;;;;;23.22;63.38;94741.13;5028310;28;20106;-65
2021/06/21 04:28:02;;;;;;;10.85;4.03;;;;;;;23.26;63.57;94744.63;5030406;28;20025;-66
2021/06/21 04:30:28;;;;;;;10.35;4.22;;;;;;;23.28;62.87;94750.41;5027700;28;20037;-66
2021/06/21 04:32:54;;;;;;;14.40;4.20;;;;;;;23.45;63.05;94767.03;5015809;28;20073;-65
2021/06/21 04:35:22;;;;;;;10.25;3.67;;;;;;;23.41;62.77;94753.47;5008501;28;20033;-64
2021/06/21 04:37:47;;;;;;;11.95;4.63;;;;;;;23.44;62.80;94770.88;5008694;28;20185;-65
2021/06/21 04:40:17;;;;;;;8.95;4.22;;;;;;;23.33;62.56;94770.94;5010644;28;20030;-71
2021/06/21 04:42:43;;;;;;;9.15;3.58;;;;;;;23.15;62.50;94762.88;5026816;28;20044;-68
2021/06/21 04:45:10;;;;;;;10.57;4.45;;;;;;;23.24;62.63;94784.94;5029789;28;20124;-73
2021/06/21 04:47:36;;;;;;;10.90;4.10;;;;;;;22.98;62.71;94748.22;5015146;28;20026;-69
2021/06/21 04:50:08;;;;;;;9.35;3.85;;;;;;;22.94;63.23;94758.31;5029365;28;20183;-72
2021/06/21 04:52:35;;;;;;;15.10;4.07;;;;;;;22.92;63.13;94757.91;5032210;28;20025;-75
2021/06/21 04:55:01;;;;;;;11.52;3.92;;;;;;;23.06;63.19;94778.78;5054724;28;20027;-69
2021/06/21 04:57:28;;;;;;;19.88;5.00;;;;;;;23.03;63.08;94774.16;5052087;28;20040;-68
2021/06/21 04:59:54;;;;;;;15.70;4.10;;;;;;;23.04;63.48;94770.28;5044111;28;20029;-72
2021/06/21 05:02:19;;;;;;;14.05;4.78;;;;;;;23.14;63.05;94771.41;5036418;28;20495;-77
2021/06/21 05:04:45;;;;;;;16.63;4.20;;;;;;;23.08;62.41;94760.97;5049929;28;20475;-76
2021/06/21 05:07:10;;;;;;;10.45;3.70;;;;;;;23.17;62.76;94789.59;5033023;28;20053;-67
2021/06/21 05:09:36;;;;;;;13.60;3.72;;;;;;;23.17;62.92;94795.03;5031802;28;20056;-68
2021/06/21 05:12:01;;;;;;;14.55;3.95;;;;;;;23.19;62.64;94796.22;5031385;28;20048;-79
2021/06/21 05:14:27;;;;;;;14.07;4.43;;;;;;;23.14;62.38;94791.19;5035543;28;20129;-69
2021/06/21 05:16:52;;;;;;;11.50;3.88;;;;;;;23.11;62.57;94789.25;5031730;28;20045;-69
2021/06/21 05:19:18;;;;;;;12.85;4.22;;;;;;;23.05;62.47;94788.88;5033712;28;20124;-71
2021/06/21 05:21:43;;;;;;;10.75;3.80;;;;;;;23.11;62.04;94785.75;5031754;28;20040;-68
2021/06/21 05:24:09;;;;;;;39.40;27.02;;;;;;;23.10;62.48;94793.13;5031584;28;20060;-80
2021/06/21 05:26:34;;;;;;;15.68;12.25;;;;;;;23.37;61.90;94809.69;5033143;28;20055;-83
2021/06/21 05:29:00;;;;;;;8.48;3.80;;;;;;;23.41;60.89;94777.88;5032858;28;20460;-84
2021/06/21 05:31:25;;;;;;;17.08;8.30;;;;;;;23.44;60.61;94733.69;5032584;28;20513;-74
2021/06/21 05:33:51;;;;;;;17.23;3.95;;;;;;;24.02;59.96;94800.06;5011739;28;20138;-78
2021/06/21 05:36:16;;;;;;;8.98;4.15;;;;;;;24.29;59.22;94792.13;5027445;28;20128;-70
2021/06/21 05:38:42;;;;;;;8.52;3.47;;;;;;;24.45;58.14;94760.94;5026663;28;20045;-62
2021/06/21 05:41:08;;;;;;;26.65;4.80;;;;;;;24.79;56.66;94769.94;5028770;28;20069;-62
2021/06/21 05:43:33;;;;;;;14.15;4.72;;;;;;;25.05;55.09;94770.47;5030305;28;20500;-62
2021/06/21 05:46:00;;;;;;;9.70;3.47;;;;;;;24.75;53.67;94695.78;5032481;28;20032;-62
2021/06/21 05:48:25;;;;;;;12.40;3.75;;;;;;;24.49;52.73;94626.53;5030233;28;20515;-62
2021/06/21 05:50:51;;;;;;;10.65;3.50;;;;;;;25.20;52.08;94752.81;5026999;28;20046;-62
2021/06/21 05:53:17;;;;;;;18.92;3.42;;;;;;;24.40;52.73;94628.19;5030339;28;20041;-62
2021/06/21 05:55:43;;;;;;;10.75;3.70;;;;;;;24.96;51.15;94653.16;5030512;28;20560;-62
2021/06/21 05:58:08;;;;;;;12.02;3.45;;;;;;;25.29;50.67;94654.34;5032761;28;20029;-62
2021/06/21 06:00:34;;;;;;;8.93;3.10;;;;;;;25.52;48.35;94616.25;5029452;28;20410;-62
2021/06/21 06:02:59;;;;;;;11.57;3.67;;;;;;;26.32;48.20;94687.38;5017273;28;20069;-62
2021/06/21 06:05:25;;;;;;;8.23;3.03;;;;;;;26.17;47.11;94638.56;5018547;28;20635;-62
2021/06/21 06:07:51;;;;;;;15.75;3.65;;;;;;;26.51;47.26;94651.19;5027215;28;20574;-62
2021/06/21 06:10:16;;;;;;;10.45;3.33;;;;;;;27.03;45.53;94745.38;5012878;28;20034;-62
2021/06/21 06:12:42;;;;;;;12.32;3.67;;;;;;;25.89;47.76;94699.75;5010050;28;20038;-61
2021/06/21 06:15:09;;;;;;;7.15;3.30;;;;;;;25.97;47.62;94669.69;5010201;28;20092;-61
2021/06/21 06:17:34;;;;;;;11.20;2.88;;;;;;;25.92;46.46;94673.63;5019474;28;20080;-62
2021/06/21 06:20:00;;;;;;;8.85;3.25;;;;;;;25.82;46.04;94652.78;5030006;28;20495;-61
2021/06/21 06:22:25;;;;;;;11.20;3.22;;;;;;;25.32;47.63;94714.16;5031824;28;20037;-62
2021/06/21 06:24:51;;;;;;;9.57;2.95;;;;;;;24.30;49.09;94678.72;5030173;28;20190;-62
2021/06/21 06:27:17;;;;;;;9.95;3.10;;;;;;;23.33;51.38;94576.31;5013793;28;20041;-61
2021/06/21 06:29:42;;;;;;;9.55;3.20;;;;;;;24.59;50.40;94785.28;5009649;28;20558;-61
2021/06/21 06:32:08;;;;;;;14.38;2.78;;;;;;;23.86;50.85;94639.56;5013480;28;20116;-61
2021/06/21 06:34:34;;;;;;;8.25;2.80;;;;;;;23.89;48.73;94676.00;5029912;28;20025;-61
2021/06/21 06:36:59;;;;;;;8.95;2.47;;;;;;;22.68;50.35;94661.13;5030608;28;20112;-61
2021/06/21 06:39:25;;;;;;;9.93;2.55;;;;;;;23.27;49.13;94678.31;5029745;28;20049;-62
2021/06/21 06:41:51;;;;;;;9.15;2.35;;;;;;;23.02;48.59;94667.59;5029611;28;20044;-62
2021/06/21 06:44:17;;;;;;;8.63;2.70;;;;;;;22.15;51.07;94608.63;5022508;28;20046;-61
2021/06/21 06:46:42;;;;;;;5.70;2.20;;;;;;;23.11;51.08;94781.09;5011262;28;20022;-61
2021/06/21 06:49:08;;;;;;;8.40;3.13;;;;;;;22.46;52.67;94672.03;5031517;28;20018;-61
2021/06/21 06:51:45;;;;;;;11.90;2.63;;;;;;;22.28;49.52;94623.31;5029452;28;20103;-61
2021/06/21 06:56:59;;;;;;;7.25;2.38;;;;;;;23.93;47.18;94653.06;5029241;28;20111;-61
2021/06/21 06:59:35;;;;;;;8.07;2.45;;;;;;;22.81;47.90;94645.97;5029220;28;20452;-62
2021/06/21 07:02:04;;;;;;;10.48;2.95;;;;;;;23.30;48.73;94729.09;5028080;28;20045;-62
2021/06/21 07:04:31;;;;;;;7.25;2.10;;;;;;;24.31;48.15;94740.84;5027785;28;20479;-62
2021/06/21 07:06:59;;;;;;;9.95;2.05;;;;;;;23.67;48.83;94773.13;5011663;28;20121;-62
2021/06/21 07:09:26;;;;;;;8.95;1.88;;;;;;;23.83;48.43;94765.28;5019913;28;20048;-61
2021/06/21 07:11:53;;;;;;;10.45;2.25;;;;;;;24.05;47.56;94749.59;5008957;28;20044;-62
2021/06/21 07:14:18;;;;;;;4.57;1.88;;;;;;;23.18;46.76;94710.53;5008999;28;20038;-62
2021/06/21 07:16:46;;;;;;;8.77;2.05;;;;;;;23.58;48.22;94782.44;5011567;28;20024;-64
2021/06/21 07:19:11;;;;;;;8.57;2.40;;;;;;;23.85;46.79;94788.16;5031311;28;20490;-64
2021/06/21 07:21:37;;;;;;;8.57;1.90;;;;;;;23.55;47.29;94785.97;5029192;28;20037;-64
2021/06/21 07:24:02;;;;;;;7.68;2.28;;;;;;;23.63;46.35;94705.28;5015836;28;20511;-64
2021/06/21 07:26:28;;;;;;;7.85;2.13;;;;;;;23.96;45.54;94735.72;5017560;28;20633;-65
2021/06/21 07:28:54;;;;;;;8.43;2.03;;;;;;;24.47;45.38;94764.81;5029061;28;20117;-64
2021/06/21 07:31:19;;;;;;;7.53;2.17;;;;;;;24.51;45.39;94759.34;5030428;28;20463;-64
2021/06/21 07:33:44;;;;;;;8.07;2.38;;;;;;;25.00;44.31;94766.22;5028384;28;20432;-64
2021/06/21 07:36:10;;;;;;;5.90;2.22;;;;;;;23.82;45.49;94747.44;5015176;28;20061;-65
2021/06/21 07:38:36;;;;;;;8.15;3.20;;;;;;;24.30;44.08;94766.47;5033301;28;20391;-65
2021/06/21 07:41:02;;;;;;;4.47;2.00;;;;;;;25.40;42.08;94764.63;5043788;28;20453;-65
2021/06/21 07:43:28;;;;;;;9.32;2.17;;;;;;;25.58;42.25;94752.72;5028724;28;20109;-64
2021/06/21 07:45:53;;;;;;;5.82;2.13;;;;;;;24.82;42.45;94684.78;5040573;28;20116;-66
2021/06/21 07:48:18;;;;;;;8.68;2.30;;;;;;;25.21;42.21;94759.78;5028482;28;20125;-65
2021/06/21 07:50:44;;;;;;;9.63;2.05;;;;;;;25.47;42.23;94727.59;5018459;28;20121;-67
2021/06/21 07:53:10;;;;;;;5.22;1.95;;;;;;;24.20;44.67;94745.59;5008535;28;20068;-64
2021/06/21 07:55:36;;;;;;;6.15;2.08;;;;;;;24.49;43.40;94750.81;5010007;28;20122;-67
2021/06/21 07:58:02;;;;;;;8.95;2.65;;;;;;;24.01;46.02;94767.88;5030469;28;20026;-66
2021/06/21 08:00:28;;;;;;;6.47;2.20;;;;;;;25.10;44.25;94756.44;5028311;28;20114;-66
2021/06/21 08:02:54;;;;;;;6.07;2.08;;;;;;;25.24;43.50;94758.22;5018469;28;20527;-72
2021/06/21 08:05:22;;;;;;;7.75;2.60;;;;;;;24.72;44.13;94758.34;5043865;28;20147;-68
2021/06/21 08:07:48;;;;;;;4.68;1.60;;;;;;;24.20;43.53;94690.47;5028873;28;20018;-71
2021/06/21 08:10:15;;;;;;;13.55;2.33;;;;;;;24.38;42.87;94756.34;5030691;28;20036;-67
2021/06/21 08:12:41;;;;;;;4.18;1.63;;;;;;;24.04;43.32;94748.81;5027855;28;20049;-67
2021/06/21 08:15:09;;;;;;;7.32;2.35;;;;;;;24.37;43.04;94722.97;5027902;28;20057;-69
2021/06/21 08:17:34;;;;;;;5.50;1.92;;;;;;;24.99;42.38;94736.72;5043396;28;20048;-68
2021/06/21 08:19:59;;;;;;;6.15;1.73;;;;;;;24.82;42.86;94747.34;5047950;28;20045;-68
2021/06/21 08:22:25;;;;;;;5.65;1.73;;;;;;;24.67;43.19;94745.19;5049907;28;20458;-71
2021/06/21 08:24:51;;;;;;;5.45;2.05;;;;;;;24.47;42.65;94758.63;5048167;28;20395;-69
2021/06/21 08:27:18;;;;;;;9.07;2.45;;;;;;;24.96;41.11;94749.16;5046628;28;20419;-65
2021/06/21 08:29:44;;;;;;;5.80;2.20;;;;;;;25.38;40.55;94756.06;5047940;28;20041;-66
2021/06/21 08:32:11;;;;;;;5.82;2.00;;;;;;;25.10;40.37;94746.31;5028772;28;20045;-66
2021/06/21 08:34:37;;;;;;;8.85;2.13;;;;;;;25.31;40.39;94760.84;5027717;28;20027;-64
2021/06/21 08:37:02;;;;;;;10.18;2.30;;;;;;;25.10;41.18;94756.44;5029954;28;20014;-68
2021/06/21 08:39:28;;;;;;;9.57;2.10;;;;;;;24.86;41.02;94731.78;5010403;28;20037;-65
2021/06/21 08:41:54;;;;;;;5.80;1.88;;;;;;;25.59;39.79;94738.72;5019128;28;20038;-64
2021/06/21 08:44:20;;;;;;;6.10;1.70;;;;;;;25.55;38.95;94748.09;5026632;28;20057;-64
2021/06/21 08:46:49;;;;;;;9.48;2.63;;;;;;;24.68;40.91;94687.69;5027555;28;20463;-64
2021/06/21 08:49:15;;;;;;;7.35;2.40;;;;;;;24.70;42.69;94747.13;5028497;28;20018;-62
2021/06/21 08:51:41;;;;;;;6.18;2.35;;;;;;;25.21;40.68;94759.03;5027892;28;20091;-63
2021/06/21 08:54:06;;;;;;;4.75;1.67;;;;;;;24.81;41.26;94748.53;5027558;28;20037;-64
2021/06/21 08:56:32;;;;;;;4.72;2.22;;;;;;;25.02;39.93;94720.31;5027864;28;20038;-64
2021/06/21 08:58:57;;;;;;;6.38;1.95;;;;;;;24.51;40.52;94689.41;5027893;28;20037;-68
2021/06/21 09:01:23;;;;;;;6.13;1.88;;;;;;;24.83;40.59;94737.28;5028279;28;20029;-64
2021/06/21 09:03:49;;;;;;;6.55;2.00;;;;;;;25.52;39.51;94724.41;5027547;28;20523;-64
2021/06/21 09:06:20;;;;;;;7.75;2.30;;;;;;;26.17;39.92;94739.41;5027845;28;20128;-64
2021/06/21 09:08:55;;;;;;;8.90;2.10;;;;;;;25.82;40.04;94740.72;5017660;28;20042;-64
2021/06/21 09:11:41;;;;;;;9.43;1.75;;;;;;;25.71;40.82;94745.53;5014796;28;20092;-64
2021/06/21 09:14:28;;;;;;;7.32;2.65;;;;;;;26.37;39.30;94742.22;5025515;28;20041;-63
2021/06/21 09:17:09;;;;;;;6.30;1.98;;;;;;;26.53;39.38;94733.41;5027371;28;20128;-63
2021/06/21 09:19:45;;;;;;;6.63;2.20;;;;;;;26.42;39.29;94719.19;5042446;28;20460;-63
2021/06/21 09:22:33;;;;;;;5.70;2.47;;;;;;;26.95;39.90;94726.38;5047925;28;20044;-64
2021/06/21 09:25:06;;;;;;;10.82;2.05;;;;;;;26.01;38.10;94708.53;5048087;28;20037;-61
2021/06/21 09:27:32;;;;;;;8.00;2.15;;;;;;;25.98;39.73;94710.13;5045826;28;20029;-62
2021/06/21 09:30:09;;;;;;;8.13;2.40;;;;;;;25.96;39.79;94739.75;5041531;28;20365;-62
2021/06/21 09:32:42;;;;;;;8.68;1.95;;;;;;;25.75;39.71;94740.84;5026687;28;20376;-62
2021/06/21 09:35:10;;;;;;;5.85;2.05;;;;;;;26.50;38.65;94722.53;5023216;28;20042;-61
2021/06/21 09:37:47;;;;;;;7.28;1.92;;;;;;;26.14;38.88;94709.47;5011542;28;20100;-62
2021/06/21 09:40:34;;;;;;;9.25;2.33;;;;;;;26.23;39.34;94728.81;5013307;28;20030;-62
2021/06/21 09:43:26;;;;;;;7.00;1.77;;;;;;;27.06;38.35;94719.94;5029701;28;20049;-62
2021/06/21 09:46:15;;;;;;;8.20;2.30;;;;;;;26.66;38.05;94731.59;5011544;28;20058;-62
2021/06/21 09:48:51;;;;;;;6.18;1.92;;;;;;;26.57;38.31;94725.94;5010992;28;20124;-62
2021/06/21 09:51:20;;;;;;;5.68;1.75;;;;;;;26.50;39.18;94733.44;5011105;28;20490;-61
2021/06/21 09:53:54;;;;;;;6.35;2.22;;;;;;;26.34;39.00;94726.66;5009455;28;20475;-62
2021/06/21 09:56:56;;;;;;;9.77;2.22;;;;;;;26.54;38.03;94720.53;5017658;28;20049;-62
2021/06/21 09:59:29;;;;;;;6.13;1.92;;;;;;;27.26;37.92;94726.19;5030911;28;20080;-62
2021/06/21 10:02:10;;;;;;;6.65;1.58;;;;;;;27.27;38.12;94725.00;5030324;28;20160;-62
2021/06/21 10:04:39;;;;;;;7.03;1.73;;;;;;;27.64;36.57;94720.31;5030823;28;20033;-62
2021/06/21 10:07:24;;;;;;;6.35;1.92;;;;;;;27.19;37.39;94723.63;5032581;28;20021;-62
2021/06/21 10:09:51;;;;;;;8.75;2.45;;;;;;;26.46;38.01;94727.28;5030736;28;20026;-62
2021/06/21 10:12:18;;;;;;;8.23;2.03;;;;;;;25.95;38.72;94729.25;5030422;28;20045;-62
2021/06/21 10:14:44;;;;;;;9.40;1.85;;;;;;;26.21;37.95;94720.28;5030113;28;20034;-62
2021/06/21 10:17:09;;;;;;;6.65;2.40;;;;;;;26.12;37.91;94722.78;5029957;28;20394;-65
2021/06/21 10:19:34;;;;;;;4.97;1.95;;;;;;;26.08;38.80;94702.97;5032277;28;20034;-64
2021/06/21 10:22:00;;;;;;;7.82;2.25;;;;;;;26.20;38.33;94721.44;5030913;28;20029;-64
2021/06/21 10:24:31;;;;;;;4.38;1.98;;;;;;;27.00;36.42;94719.66;5045472;28;20049;-63
2021/06/21 10:26:57;;;;;;;10.13;1.77;;;;;;;27.05;36.66;94699.28;5030444;28;20036;-64
2021/06/21 10:29:23;;;;;;;12.60;2.38;;;;;;;26.58;37.12;94697.47;5028831;28;20053;-63
2021/06/21 10:31:49;;;;;;;5.53;2.00;;;;;;;27.48;36.43;94705.41;5038699;28;20025;-63
2021/06/21 10:34:17;;;;;;;8.25;1.83;;;;;;;27.57;36.08;94704.84;5051401;28;20533;-63
2021/06/21 10:36:48;;;;;;;6.30;1.58;;;;;;;27.36;36.65;94706.09;5046990;28;20045;-63
2021/06/21 10:39:17;;;;;;;4.32;1.52;;;;;;;27.04;36.99;94684.13;5050375;28;20025;-65
2021/06/21 10:42:05;;;;;;;5.95;1.90;;;;;;;27.08;37.14;94709.41;5049942;28;20029;-65
2021/06/21 10:44:37;;;;;;;7.38;1.90;;;;;;;26.76;38.01;94715.44;5041636;28;20095;-64
2021/06/21 10:47:21;;;;;;;9.18;1.90;;;;;;;27.41;37.17;94711.03;5022624;28;20463;-64
2021/06/21 10:49:56;;;;;;;9.23;1.83;;;;;;;27.48;36.42;94702.69;5010291;28;20053;-70
2021/06/21 10:52:36;;;;;;;8.73;2.60;;;;;;;27.40;36.68;94701.31;5011369;28;20034;-64
2021/06/21 10:55:20;;;;;;;5.40;1.70;;;;;;;26.65;37.35;94712.91;5029516;28;20025;-71
2021/06/21 10:57:46;;;;;;;9.45;1.98;;;;;;;26.74;37.76;94710.41;5008159;28;20446;-71
2021/06/21 11:00:13;;;;;;;10.07;2.25;;;;;;;26.86;36.98;94693.41;5023877;28;20033;-70
2021/06/21 11:02:39;;;;;;;8.90;2.13;;;;;;;27.62;36.33;94706.31;5028945;28;20037;-70
2021/06/21 11:05:05;;;;;;;4.03;2.00;;;;;;;27.16;36.79;94700.63;5029532;28;20045;-69
2021/06/21 11:07:32;;;;;;;5.43;1.77;;;;;;;27.68;35.90;94694.44;5031521;28;20025;-66
2021/06/21 11:09:58;;;;;;;4.00;1.65;;;;;;;27.45;36.74;94698.09;5030253;28;20038;-70
2021/06/21 11:12:24;;;;;;;5.95;1.85;;;;;;;27.70;36.75;94703.03;5029313;28;20074;-71
2021/06/21 11:15:08;;;;;;;12.52;2.20;;;;;;;27.60;36.21;94700.50;5029818;28;20041;-71
2021/06/21 11:17:42;;;;;;;8.38;2.45;;;;;;;28.17;35.44;94699.19;5028919;28;20690;-71
2021/06/21 11:20:44;;;;;;;4.55;1.77;;;;;;;27.46;35.50;94698.84;5029156;28;20056;-66
2021/06/21 11:23:12;;;;;;;8.05;2.05;;;;;;;27.47;36.94;94703.13;5029051;28;20467;-66
2021/06/21 11:25:47;;;;;;;6.72;2.00;;;;;;;27.82;35.29;94700.81;5029434;28;20033;-65
2021/06/21 11:28:38;;;;;;;7.28;2.08;;;;;;;27.62;35.47;94709.03;5031237;28;20467;-64
2021/06/21 11:31:18;;;;;;;9.18;2.08;;;;;;;27.19;36.41;94709.97;5029326;28;20045;-65
2021/06/21 11:34:06;;;;;;;8.40;1.83;;;;;;;27.70;35.64;94702.22;5028284;28;20041;-65
2021/06/21 11:36:45;;;;;;;8.77;2.10;;;;;;;28.07;34.95;94678.34;4993385;28;20046;-71
2021/06/21 11:39:27;;;;;;;5.47;2.22;;;;;;;28.04;34.54;94690.91;5003063;28;20030;-66